Time;durP1;ratioP1;P1;durP2;ratioP2;P2;SDS_P1;SDS_P2;PMS_P1;PMS_P2;Temp;Humidity;BMP_temperature;BMP_pressure;BME280_temperature;BME280_humidity;BME280_pressure;Samples;Min_cycle;Max_cycle;Signal;HPM_P1;HPM_P2
2024/01/18 00:00:16;;;;;;;2.83;1.08;;;;;;;;;;5016629;28;20041;-78
2024/01/18 00:02:42;;;;;;;3.53;1.00;;;;;;;;;;5023735;28;20092;-78
2024/01/18 00:05:08;;;;;;;2.22;1.20;;;;;;;;;;5027474;28;20052;-78
2024/01/18 00:07:34;;;;;;;1.80;1.00;;;;;;;;;;5023510;28;20120;-78
2024/01/18 00:10:00;;;;;;;1.23;1.13;;;;;;;;;;5013857;28;20041;-78
2024/01/18 00:12:26;;;;;;;3.00;1.10;;;;;;;;;;5030931;28;20231;-78
2024/01/18 00:14:52;;;;;;;1.95;0.93;;;;;;;;;;5024293;28;20053;-78
2024/01/18 00:17:18;;;;;;;1.95;0.95;;;;;;;;;;5023363;28;20050;-78
2024/01/18 00:19:44;;;;;;;1.13;1.02;;;;;;;;;;5013825;28;20041;-78
2024/01/18 00:22:10;;;;;;;3.03;1.10;;;;;;;;;;4996488;28;20096;-78
2024/01/18 00:24:37;;;;;;;4.32;1.42;;;;;;;;;;5016998;28;20045;-78
2024/01/18 00:27:03;;;;;;;2.42;1.40;;;;;;;;;;5033338;28;20054;-78
2024/01/18 00:29:30;;;;;;;2.65;1.13;;;;;;;;;;5018787;28;20044;-78
2024/01/18 00:31:56;;;;;;;5.25;1.40;;;;;;;;;;5023772;28;20502;-78
2024/01/18 00:34:22;;;;;;;2.88;1.52;;;;;;;;;;5023886;28;20041;-79
2024/01/18 00:36:49;;;;;;;6.07;2.70;;;;;;;;;;5022833;28;20103;-78
2024/01/18 00:39:18;;;;;;;5.80;2.38;;;;;;;;;;4999126;28;20465;-78
2024/01/18 00:41:45;;;;;;;7.82;2.35;;;;;;;;;;5024553;28;20161;-79
2024/01/18 00:44:11;;;;;;;2.67;1.55;;;;;;;;;;5020515;28;20167;-78
2024/01/18 00:46:37;;;;;;;5.82;1.50;;;;;;;;;;5030097;28;20049;-77
2024/01/18 00:49:04;;;;;;;2.95;1.40;;;;;;;;;;5022958;28;20489;-78
2024/01/18 00:51:31;;;;;;;4.35;1.60;;;;;;;;;;4995924;28;20061;-77
2024/01/18 00:53:57;;;;;;;5.60;1.40;;;;;;;;;;5031797;28;20057;-77
2024/01/18 00:56:23;;;;;;;3.83;1.52;;;;;;;;;;5028082;28;20049;-78
2024/01/18 00:58:49;;;;;;;5.10;1.67;;;;;;;;;;5026612;28;20038;-77
2024/01/18 01:01:16;;;;;;;4.63;1.42;;;;;;;;;;5013222;28;20137;-77
2024/01/18 01:03:42;;;;;;;1.98;1.10;;;;;;;;;;5026180;28;20120;-78
2024/01/18 01:06:11;;;;;;;2.05;1.73;;;;;;;;;;5034317;28;20095;-77
2024/01/18 01:08:37;;;;;;;2.78;1.70;;;;;;;;;;5014823;28;20085;-78
2024/01/18 01:11:04;;;;;;;3.00;1.67;;;;;;;;;;5031618;28;20429;-78
2024/01/18 01:13:30;;;;;;;2.80;1.38;;;;;;;;;;5026622;28;20054;-78
2024/01/18 01:15:56;;;;;;;6.28;1.77;;;;;;;;;;5021784;28;20125;-78
2024/01/18 01:18:22;;;;;;;2.33;1.48;;;;;;;;;;5031057;28;20137;-78
2024/01/18 01:20:48;;;;;;;2.83;1.27;;;;;;;;;;5035693;28;20065;-77
2024/01/18 01:23:15;;;;;;;3.30;1.45;;;;;;;;;;5031481;28;20489;-78
2024/01/18 01:25:41;;;;;;;1.98;1.20;;;;;;;;;;5028632;28;20488;-77
2024/01/18 01:28:07;;;;;;;4.50;1.35;;;;;;;;;;5030274;28;20078;-77
2024/01/18 01:30:33;;;;;;;4.35;1.30;;;;;;;;;;5026454;28;20103;-78
2024/01/18 01:32:59;;;;;;;4.65;1.42;;;;;;;;;;5034600;28;20038;-78
2024/01/18 01:35:25;;;;;;;2.67;1.67;;;;;;;;;;5024619;28;20049;-78
2024/01/18 01:37:51;;;;;;;2.85;1.10;;;;;;;;;;5029964;28;20045;-78
2024/01/18 01:40:18;;;;;;;4.18;1.30;;;;;;;;;;5019672;28;20042;-78
2024/01/18 01:42:44;;;;;;;6.15;1.60;;;;;;;;;;5004947;28;20041;-78
2024/01/18 01:45:10;;;;;;;1.35;1.20;;;;;;;;;;5036286;28;20037;-77
2024/01/18 01:47:37;;;;;;;4.10;1.40;;;;;;;;;;5022625;28;20045;-77
2024/01/18 01:50:03;;;;;;;2.45;1.45;;;;;;;;;;5023596;28;20042;-77
2024/01/18 01:52:30;;;;;;;4.22;1.70;;;;;;;;;;5016412;28;20045;-77
2024/01/18 01:54:56;;;;;;;2.90;1.50;;;;;;;;;;4999417;28;20129;-78
2024/01/18 01:57:23;;;;;;;3.67;1.38;;;;;;;;;;5034497;28;20049;-77
2024/01/18 01:59:49;;;;;;;1.85;1.33;;;;;;;;;;5036469;28;20041;-77
2024/01/18 02:02:17;;;;;;;4.75;1.63;;;;;;;;;;5036517;28;20057;-78
2024/01/18 02:04:43;;;;;;;2.88;1.27;;;;;;;;;;5023430;28;20053;-78
2024/01/18 02:07:09;;;;;;;1.33;0.90;;;;;;;;;;5035318;28;20073;-77
2024/01/18 02:09:35;;;;;;;3.63;1.13;;;;;;;;;;5035829;28;20120;-78
2024/01/18 02:12:01;;;;;;;3.03;1.33;;;;;;;;;;5034210;28;20099;-78
2024/01/18 02:14:28;;;;;;;1.77;1.17;;;;;;;;;;5033493;28;20416;-77
2024/01/18 02:16:54;;;;;;;4.22;1.10;;;;;;;;;;5022592;28;20045;-78
2024/01/18 02:19:20;;;;;;;1.90;1.10;;;;;;;;;;5022580;28;20439;-78
2024/01/18 02:21:46;;;;;;;2.78;0.95;;;;;;;;;;5035631;28;20124;-78
2024/01/18 02:24:20;;;;;;;1.90;0.82;;;;;;;;;;5034912;28;20041;-77
2024/01/18 02:26:46;;;;;;;3.80;1.33;;;;;;;;;;5018873;28;20085;-77
2024/01/18 02:29:12;;;;;;;3.22;1.00;;;;;;;;;;5026391;28;20045;-77
2024/01/18 02:31:38;;;;;;;1.65;0.90;;;;;;;;;;5025027;28;20045;-78
2024/01/18 02:34:08;;;;;;;2.17;1.25;;;;;;;;;;5029019;28;20052;-78
2024/01/18 02:36:34;;;;;;;2.22;1.20;;;;;;;;;;5018463;28;20046;-77
2024/01/18 02:39:00;;;;;;;3.28;1.00;;;;;;;;;;5017792;28;20042;-77
2024/01/18 02:41:26;;;;;;;2.50;1.20;;;;;;;;;;5031448;28;20048;-77
2024/01/18 02:43:53;;;;;;;2.60;1.75;;;;;;;;;;5017049;28;20405;-77
2024/01/18 02:46:19;;;;;;;7.05;1.30;;;;;;;;;;5028594;28;20040;-77
2024/01/18 02:48:45;;;;;;;3.00;1.05;;;;;;;;;;5021777;28;20037;-77
2024/01/18 02:51:11;;;;;;;2.30;1.17;;;;;;;;;;5030163;28;20056;-78
2024/01/18 02:53:37;;;;;;;3.35;1.20;;;;;;;;;;5033790;28;20041;-78
2024/01/18 02:56:04;;;;;;;2.03;1.20;;;;;;;;;;5025752;28;20053;-78
2024/01/18 02:58:30;;;;;;;2.30;1.15;;;;;;;;;;5022918;28;20046;-77
2024/01/18 03:00:56;;;;;;;2.45;1.27;;;;;;;;;;5034597;28;20051;-78
2024/01/18 03:03:22;;;;;;;3.33;1.30;;;;;;;;;;5017975;28;20462;-78
2024/01/18 03:05:48;;;;;;;3.10;1.10;;;;;;;;;;5024518;28;20045;-78
2024/01/18 03:08:15;;;;;;;3.60;1.38;;;;;;;;;;5014446;28;20044;-78
2024/01/18 03:10:41;;;;;;;1.63;1.10;;;;;;;;;;5014771;28;20489;-77
2024/01/18 03:13:07;;;;;;;3.13;1.15;;;;;;;;;;5030339;28;20050;-77
2024/01/18 03:15:33;;;;;;;2.65;1.77;;;;;;;;;;5015799;28;20045;-77
2024/01/18 03:17:59;;;;;;;4.05;1.30;;;;;;;;;;5018585;28;20095;-77
2024/01/18 03:20:25;;;;;;;4.70;1.35;;;;;;;;;;5014791;28;20041;-77
2024/01/18 03:22:51;;;;;;;3.22;1.05;;;;;;;;;;5027776;28;20096;-78
2024/01/18 03:25:18;;;;;;;3.53;0.98;;;;;;;;;;5023271;28;20085;-78
2024/01/18 03:27:44;;;;;;;1.02;0.93;;;;;;;;;;5028653;28;20222;-78
2024/01/18 03:30:10;;;;;;;4.97;1.17;;;;;;;;;;5032898;28;20148;-78
2024/01/18 03:32:36;;;;;;;2.38;1.30;;;;;;;;;;5033566;28;20096;-77
2024/01/18 03:35:02;;;;;;;1.73;1.20;;;;;;;;;;5025148;28;20042;-77
2024/01/18 03:37:28;;;;;;;2.20;1.10;;;;;;;;;;5027623;28;20127;-78
2024/01/18 03:39:55;;;;;;;2.65;1.40;;;;;;;;;;5023561;28;20523;-77
2024/01/18 03:42:21;;;;;;;1.20;1.10;;;;;;;;;;5033291;28;20100;-78
2024/01/18 03:44:47;;;;;;;1.45;1.10;;;;;;;;;;5027262;28;20044;-78
2024/01/18 03:47:13;;;;;;;3.30;1.33;;;;;;;;;;5027133;28;20133;-78
2024/01/18 03:49:39;;;;;;;4.20;1.35;;;;;;;;;;5023761;28;20121;-78
2024/01/18 03:52:05;;;;;;;2.60;1.15;;;;;;;;;;5020419;28;20140;-78
2024/01/18 03:54:31;;;;;;;1.52;0.95;;;;;;;;;;5033279;28;20484;-78
2024/01/18 03:56:57;;;;;;;1.98;1.15;;;;;;;;;;5022318;28;20074;-78
2024/01/18 03:59:23;;;;;;;2.97;1.10;;;;;;;;;;5029861;28;20087;-77
2024/01/18 04:01:50;;;;;;;4.10;1.63;;;;;;;;;;5030646;28;20050;-77
2024/01/18 04:04:16;;;;;;;1.98;1.38;;;;;;;;;;5023461;28;20045;-78
2024/01/18 04:06:42;;;;;;;2.22;1.30;;;;;;;;;;5033270;28;20041;-78
2024/01/18 04:09:08;;;;;;;4.47;1.27;;;;;;;;;;5024112;28;20041;-78
2024/01/18 04:11:34;;;;;;;4.03;1.67;;;;;;;;;;5024904;28;20053;-78
2024/01/18 04:14:03;;;;;;;4.13;1.48;;;;;;;;;;5010795;28;20041;-77
2024/01/18 04:16:29;;;;;;;2.40;1.27;;;;;;;;;;5026709;28;20103;-78
2024/01/18 04:18:55;;;;;;;4.32;1.30;;;;;;;;;;5023442;28;20050;-78
2024/01/18 04:21:21;;;;;;;4.95;1.40;;;;;;;;;;5031778;28;20029;-78
2024/01/18 04:23:47;;;;;;;2.97;1.27;;;;;;;;;;5027635;28;20397;-78
2024/01/18 04:26:13;;;;;;;9.30;1.58;;;;;;;;;;5024298;28;20037;-78
2024/01/18 04:28:39;;;;;;;4.60;1.52;;;;;;;;;;5023092;28;20403;-78
2024/01/18 04:31:05;;;;;;;2.75;1.30;;;;;;;;;;5030035;28;20556;-78
2024/01/18 04:33:31;;;;;;;5.90;1.92;;;;;;;;;;5015561;28;20133;-78
2024/01/18 04:35:57;;;;;;;3.33;1.20;;;;;;;;;;5026395;28;20069;-78
2024/01/18 04:38:24;;;;;;;1.75;1.10;;;;;;;;;;5013873;28;20062;-78
2024/01/18 04:40:50;;;;;;;2.05;1.20;;;;;;;;;;5000863;28;20056;-77
2024/01/18 04:43:17;;;;;;;5.00;1.70;;;;;;;;;;5025914;28;20500;-77
2024/01/18 04:45:43;;;;;;;3.92;1.73;;;;;;;;;;5002275;28;20041;-77
2024/01/18 04:48:09;;;;;;;5.55;1.80;;;;;;;;;;5008413;28;20489;-77
2024/01/18 04:50:35;;;;;;;4.13;1.65;;;;;;;;;;5030052;28;20125;-78
2024/01/18 04:53:01;;;;;;;2.28;1.30;;;;;;;;;;5033346;28;20052;-78
2024/01/18 04:55:28;;;;;;;6.63;1.30;;;;;;;;;;5028818;28;20041;-78
2024/01/18 04:57:54;;;;;;;3.53;1.48;;;;;;;;;;5015049;28;20068;-78
2024/01/18 05:00:20;;;;;;;2.85;1.83;;;;;;;;;;5016142;28;20042;-78
2024/01/18 05:02:46;;;;;;;6.30;2.30;;;;;;;;;;5017545;28;20378;-78
2024/01/18 05:05:12;;;;;;;4.57;2.10;;;;;;;;;;5015604;28;20038;-77
2024/01/18 05:07:40;;;;;;;3.63;1.90;;;;;;;;;;5013950;28;20045;-78
2024/01/18 05:10:08;;;;;;;2.03;1.50;;;;;;;;;;5009139;28;20413;-78
2024/01/18 05:12:35;;;;;;;4.15;1.52;;;;;;;;;;5024121;28;20088;-78
2024/01/18 05:15:01;;;;;;;2.95;1.48;;;;;;;;;;5006729;28;20061;-79
2024/01/18 05:17:34;;;;;;;4.32;1.40;;;;;;;;;;5022706;28;20456;-78
2024/01/18 05:20:02;;;;;;;3.63;1.65;;;;;;;;;;5027184;28;20038;-79
2024/01/18 05:22:29;;;;;;;1.95;1.50;;;;;;;;;;5014108;28;20042;-78
2024/01/18 05:24:56;;;;;;;4.95;2.10;;;;;;;;;;5028257;28;20045;-79
2024/01/18 05:27:22;;;;;;;3.17;1.30;;;;;;;;;;5020519;28;20046;-78
2024/01/18 05:29:48;;;;;;;2.50;1.40;;;;;;;;;;5019258;28;20033;-78
2024/01/18 05:32:14;;;;;;;1.70;1.42;;;;;;;;;;5026694;28;20065;-79
2024/01/18 05:34:40;;;;;;;3.92;2.17;;;;;;;;;;5027468;28;20045;-79
2024/01/18 05:37:07;;;;;;;3.45;2.15;;;;;;;;;;5020697;28;20034;-79
2024/01/18 05:39:33;;;;;;;5.78;3.35;;;;;;;;;;5021190;28;20128;-77
2024/01/18 05:41:59;;;;;;;4.35;3.08;;;;;;;;;;5032921;28;20566;-78
2024/01/18 05:44:25;;;;;;;5.22;2.40;;;;;;;;;;5017778;28;20508;-79
2024/01/18 05:46:51;;;;;;;4.03;2.00;;;;;;;;;;5024360;28;20050;-79
2024/01/18 05:49:17;;;;;;;3.25;1.70;;;;;;;;;;5027315;28;20049;-79
2024/01/18 05:51:43;;;;;;;3.83;1.70;;;;;;;;;;5009270;28;20057;-79
2024/01/18 05:54:10;;;;;;;3.67;1.45;;;;;;;;;;5033456;28;20120;-78
2024/01/18 05:56:36;;;;;;;4.78;1.60;;;;;;;;;;5020502;28;20125;-78
2024/01/18 05:59:02;;;;;;;2.90;1.63;;;;;;;;;;5024127;28;20412;-78
2024/01/18 06:01:28;;;;;;;2.33;1.60;;;;;;;;;;5029390;28;20042;-78
2024/01/18 06:03:54;;;;;;;2.80;1.70;;;;;;;;;;5014258;28;20041;-78
2024/01/18 06:06:20;;;;;;;5.80;1.50;;;;;;;;;;5027030;28;20041;-78
2024/01/18 06:08:46;;;;;;;3.55;1.52;;;;;;;;;;5029032;28;20067;-78
2024/01/18 06:11:14;;;;;;;3.55;1.80;;;;;;;;;;5028949;28;20041;-77
2024/01/18 06:13:40;;;;;;;2.55;1.38;;;;;;;;;;5017641;28;20084;-77
2024/01/18 06:16:10;;;;;;;5.15;2.38;;;;;;;;;;5005897;28;20081;-77
2024/01/18 06:18:37;;;;;;;3.38;1.80;;;;;;;;;;5022362;28;20056;-78
2024/01/18 06:21:04;;;;;;;3.47;2.13;;;;;;;;;;5019682;28;20124;-79
2024/01/18 06:23:30;;;;;;;4.47;2.17;;;;;;;;;;5016359;28;20042;-77
2024/01/18 06:25:56;;;;;;;3.50;2.00;;;;;;;;;;5030908;28;20399;-78
2024/01/18 06:28:22;;;;;;;3.10;1.90;;;;;;;;;;5019444;28;20069;-78
2024/01/18 06:30:48;;;;;;;5.53;2.35;;;;;;;;;;5029278;28;20408;-78
2024/01/18 06:33:14;;;;;;;4.72;2.42;;;;;;;;;;5025542;28;20043;-79
2024/01/18 06:35:40;;;;;;;3.88;2.17;;;;;;;;;;5036262;28;20042;-78
2024/01/18 06:38:06;;;;;;;3.15;1.95;;;;;;;;;;5034671;28;20045;-78
2024/01/18 06:40:32;;;;;;;4.97;2.03;;;;;;;;;;5018777;28;20045;-78
2024/01/18 06:42:58;;;;;;;2.55;1.50;;;;;;;;;;5032617;28;20548;-78
2024/01/18 06:45:24;;;;;;;2.38;1.45;;;;;;;;;;5026903;28;20045;-78
2024/01/18 06:47:50;;;;;;;4.85;1.92;;;;;;;;;;5027662;28;20120;-78
2024/01/18 06:50:16;;;;;;;3.60;1.40;;;;;;;;;;5025401;28;20124;-78
2024/01/18 06:52:42;;;;;;;2.85;1.70;;;;;;;;;;5027709;28;20126;-79
2024/01/18 06:55:09;;;;;;;1.83;1.30;;;;;;;;;;5029602;28;20561;-78
2024/01/18 06:57:35;;;;;;;4.53;1.10;;;;;;;;;;5035464;28;20506;-78
2024/01/18 07:00:03;;;;;;;2.30;1.15;;;;;;;;;;5019361;28;20057;-78
2024/01/18 07:02:29;;;;;;;3.72;1.55;;;;;;;;;;5010417;28;20480;-78
2024/01/18 07:04:55;;;;;;;2.03;1.45;;;;;;;;;;5034074;28;20048;-78
2024/01/18 07:07:25;;;;;;;3.47;1.30;;;;;;;;;;5010359;28;20042;-79
2024/01/18 07:09:51;;;;;;;5.07;1.20;;;;;;;;;;5021253;28;20048;-78
2024/01/18 07:12:17;;;;;;;2.58;1.40;;;;;;;;;;5022990;28;20131;-78
2024/01/18 07:14:43;;;;;;;4.65;1.58;;;;;;;;;;5033225;28;20064;-78
2024/01/18 07:17:10;;;;;;;4.88;1.52;;;;;;;;;;5015226;28;20125;-78
2024/01/18 07:19:37;;;;;;;3.70;1.42;;;;;;;;;;5003364;28;20050;-78
2024/01/18 07:22:03;;;;;;;4.28;1.50;;;;;;;;;;5028209;28;20077;-79
2024/01/18 07:24:30;;;;;;;4.18;1.30;;;;;;;;;;5027439;28;20530;-78
2024/01/18 07:26:57;;;;;;;4.25;2.20;;;;;;;;;;5034607;28;20042;-78
2024/01/18 07:29:23;;;;;;;2.72;1.40;;;;;;;;;;5025202;28;20097;-79
2024/01/18 07:31:50;;;;;;;2.50;1.25;;;;;;;;;;5036176;28;20045;-79
2024/01/18 07:34:16;;;;;;;2.38;1.10;;;;;;;;;;5027631;28;20053;-79
2024/01/18 07:36:43;;;;;;;1.95;1.25;;;;;;;;;;5032953;28;20503;-79
2024/01/18 07:39:10;;;;;;;2.60;1.20;;;;;;;;;;5033304;28;20051;-79
2024/01/18 07:41:36;;;;;;;0.88;0.88;;;;;;;;;;5030174;28;20050;-78
2024/01/18 07:44:02;;;;;;;1.13;1.02;;;;;;;;;;5034618;28;20093;-79
2024/01/18 07:46:28;;;;;;;1.10;0.73;;;;;;;;;;5021955;28;20050;-79
2024/01/18 07:48:55;;;;;;;1.80;0.85;;;;;;;;;;5026843;28;20053;-79
2024/01/18 07:51:21;;;;;;;1.65;1.00;;;;;;;;;;5038572;28;20068;-79
2024/01/18 07:53:47;;;;;;;1.98;1.45;;;;;;;;;;5034548;28;20073;-79
2024/01/18 07:56:13;;;;;;;4.65;1.58;;;;;;;;;;5032171;28;20053;-79
2024/01/18 07:58:43;;;;;;;5.00;1.38;;;;;;;;;;5030194;28;20056;-79
2024/01/18 08:01:09;;;;;;;4.10;1.23;;;;;;;;;;5018301;28;20088;-79
2024/01/18 08:03:35;;;;;;;2.10;1.20;;;;;;;;;;5032482;28;20518;-79
2024/01/18 08:06:02;;;;;;;2.75;1.10;;;;;;;;;;5027936;28;20045;-78
2024/01/18 08:08:28;;;;;;;1.25;1.05;;;;;;;;;;5004869;28;20066;-79
2024/01/18 08:10:54;;;;;;;6.43;1.40;;;;;;;;;;5029414;28;20126;-80
2024/01/18 08:13:20;;;;;;;2.63;1.60;;;;;;;;;;5027699;28;20184;-78
2024/01/18 08:15:46;;;;;;;3.20;2.20;;;;;;;;;;5028750;28;20061;-79
2024/01/18 08:18:13;;;;;;;5.10;2.30;;;;;;;;;;5034595;28;20075;-79
2024/01/18 08:20:39;;;;;;;4.50;1.92;;;;;;;;;;5028312;28;20164;-79
2024/01/18 08:23:05;;;;;;;2.67;1.67;;;;;;;;;;5037776;28;20523;-78
2024/01/18 08:25:32;;;;;;;3.10;2.15;;;;;;;;;;5024076;28;20057;-78
2024/01/18 08:27:58;;;;;;;5.38;2.42;;;;;;;;;;5024916;28;20061;-78
2024/01/18 08:30:24;;;;;;;2.60;2.20;;;;;;;;;;5018670;28;20046;-79
2024/01/18 08:32:50;;;;;;;4.45;2.00;;;;;;;;;;5042231;28;20135;-79
2024/01/18 08:35:17;;;;;;;3.97;1.95;;;;;;;;;;5037701;28;20136;-79
2024/01/18 08:37:44;;;;;;;3.45;1.92;;;;;;;;;;5033330;28;20041;-79
2024/01/18 08:40:10;;;;;;;2.10;1.50;;;;;;;;;;5029370;28;20034;-79
2024/01/18 08:42:43;;;;;;;2.85;1.67;;;;;;;;;;5035521;28;20045;-80
2024/01/18 08:45:09;;;;;;;3.20;1.77;;;;;;;;;;5036899;28;20106;-80
2024/01/18 08:47:35;;;;;;;3.42;1.60;;;;;;;;;;5030306;28;20390;-79
2024/01/18 08:50:02;;;;;;;2.92;2.35;;;;;;;;;;5001901;28;20103;-82
2024/01/18 08:52:28;;;;;;;5.15;3.03;;;;;;;;;;5018029;28;20104;-82
2024/01/18 08:54:54;;;;;;;2.80;2.50;;;;;;;;;;5032659;28;20038;-82
2024/01/18 08:57:20;;;;;;;4.28;2.50;;;;;;;;;;5014513;28;20045;-81
2024/01/18 08:59:46;;;;;;;4.55;3.08;;;;;;;;;;5020699;28;20480;-81
2024/01/18 09:02:12;;;;;;;4.50;2.30;;;;;;;;;;5012351;28;20100;-79
2024/01/18 09:04:39;;;;;;;3.63;2.33;;;;;;;;;;5020745;28;20571;-82
2024/01/18 09:07:05;;;;;;;6.00;2.50;;;;;;;;;;5023014;28;20396;-81
2024/01/18 09:09:31;;;;;;;4.70;2.20;;;;;;;;;;4995458;28;20091;-80
2024/01/18 09:11:57;;;;;;;5.75;2.85;;;;;;;;;;5003138;28;20457;-81
2024/01/18 09:14:24;;;;;;;4.45;2.58;;;;;;;;;;5001183;28;20515;-81
2024/01/18 09:16:50;;;;;;;3.05;2.10;;;;;;;;;;5024594;28;20045;-81
2024/01/18 09:19:16;;;;;;;3.97;1.98;;;;;;;;;;5006930;28;20053;-80
2024/01/18 09:21:44;;;;;;;2.88;1.45;;;;;;;;;;5005690;28;20088;-80
2024/01/18 09:24:10;;;;;;;2.10;1.02;;;;;;;;;;5012453;28;20053;-80
2024/01/18 09:26:36;;;;;;;1.85;1.10;;;;;;;;;;5019038;28;20183;-80
2024/01/18 09:29:02;;;;;;;1.13;0.80;;;;;;;;;;5033274;28;20069;-80
2024/01/18 09:31:29;;;;;;;0.82;0.80;;;;;;;;;;5032144;28;20042;-80
2024/01/18 09:33:55;;;;;;;0.65;0.65;;;;;;;;;;5037053;28;20050;-81
2024/01/18 09:36:21;;;;;;;1.98;0.77;;;;;;;;;;5036588;28;20496;-81
2024/01/18 09:38:47;;;;;;;1.38;0.80;;;;;;;;;;5037262;28;20041;-80
2024/01/18 09:41:15;;;;;;;0.90;0.90;;;;;;;;;;5019228;28;20038;-80
2024/01/18 09:43:45;;;;;;;1.60;0.95;;;;;;;;;;5020216;28;20049;-80
2024/01/18 09:46:11;;;;;;;1.20;1.10;;;;;;;;;;5022496;28;20454;-80
2024/01/18 09:48:39;;;;;;;2.15;1.20;;;;;;;;;;5038626;28;20379;-80
2024/01/18 09:51:06;;;;;;;1.52;0.80;;;;;;;;;;5040404;28;20053;-80
2024/01/18 09:53:33;;;;;;;2.70;1.05;;;;;;;;;;5040153;28;20081;-80
2024/01/18 09:56:00;;;;;;;1.52;1.10;;;;;;;;;;5039924;28;20049;-80
2024/01/18 09:58:27;;;;;;;3.13;1.33;;;;;;;;;;4993303;28;20050;-80
2024/01/18 10:00:59;;;;;;;1.38;1.27;;;;;;;;;;5032414;28;20046;-80
2024/01/18 10:03:25;;;;;;;1.55;1.13;;;;;;;;;;4993373;28;20053;-80
2024/01/18 10:05:52;;;;;;;1.25;1.15;;;;;;;;;;5019247;28;20492;-80
2024/01/18 10:08:18;;;;;;;2.38;1.55;;;;;;;;;;5037792;28;20335;-80
2024/01/18 10:10:44;;;;;;;1.30;1.20;;;;;;;;;;5010242;28;20057;-80
2024/01/18 10:13:16;;;;;;;2.42;1.20;;;;;;;;;;5036441;28;20053;-77
2024/01/18 10:15:42;;;;;;;5.38;1.67;;;;;;;;;;5036277;28;20109;-82
2024/01/18 10:18:09;;;;;;;1.15;1.05;;;;;;;;;;5027986;28;20045;-78
2024/01/18 10:20:35;;;;;;;3.25;1.17;;;;;;;;;;5035952;28;20042;-78
2024/01/18 10:23:01;;;;;;;2.90;0.80;;;;;;;;;;5031429;28;20044;-78
2024/01/18 10:25:27;;;;;;;4.53;1.20;;;;;;;;;;5025708;28;20123;-78
2024/01/18 10:27:54;;;;;;;4.03;1.38;;;;;;;;;;5022089;28;20041;-77
2024/01/18 10:30:20;;;;;;;5.50;1.42;;;;;;;;;;5035236;28;20550;-77
2024/01/18 10:32:47;;;;;;;6.43;1.92;;;;;;;;;;5027196;28;20073;-78
2024/01/18 10:35:28;;;;;;;1.58;1.10;;;;;;;;;;5029074;28;20408;-79
2024/01/18 10:38:07;;;;;;;2.05;1.00;;;;;;;;;;5039618;28;20042;-79
2024/01/18 10:40:36;;;;;;;4.18;1.50;;;;;;;;;;5028494;28;20053;-79
2024/01/18 10:43:03;;;;;;;5.43;1.42;;;;;;;;;;5020761;28;20045;-79
2024/01/18 10:45:30;;;;;;;2.88;1.00;;;;;;;;;;5033208;28;20069;-78
2024/01/18 10:47:57;;;;;;;4.75;1.42;;;;;;;;;;5025475;28;20038;-78
2024/01/18 10:50:23;;;;;;;5.68;1.63;;;;;;;;;;5031564;28;20037;-80
2024/01/18 10:52:50;;;;;;;5.40;1.50;;;;;;;;;;5030286;28;20049;-78
2024/01/18 10:55:16;;;;;;;2.85;1.30;;;;;;;;;;5034559;28;20041;-80
2024/01/18 10:57:42;;;;;;;4.88;1.60;;;;;;;;;;5035513;28;20435;-78
2024/01/18 11:00:08;;;;;;;4.20;1.40;;;;;;;;;;5027344;28;20509;-78
2024/01/18 11:02:40;;;;;;;3.35;1.40;;;;;;;;;;5028133;28;20041;-78
2024/01/18 11:05:09;;;;;;;4.97;1.48;;;;;;;;;;5030599;28;20046;-78
2024/01/18 11:07:38;;;;;;;1.70;1.17;;;;;;;;;;5030312;28;20408;-78
2024/01/18 11:10:10;;;;;;;5.45;1.25;;;;;;;;;;5034868;28;20112;-78
2024/01/18 11:12:38;;;;;;;4.90;1.17;;;;;;;;;;5030927;28;20491;-78
2024/01/18 11:15:04;;;;;;;4.72;1.27;;;;;;;;;;5029932;28;20052;-78
2024/01/18 11:17:31;;;;;;;5.53;1.50;;;;;;;;;;5034699;28;20073;-78
2024/01/18 11:20:00;;;;;;;5.78;1.50;;;;;;;;;;5023595;28;20117;-78
2024/01/18 11:22:27;;;;;;;4.60;1.40;;;;;;;;;;5033365;28;20561;-78
2024/01/18 11:24:53;;;;;;;2.83;1.60;;;;;;;;;;5011481;28;20046;-78
2024/01/18 11:27:21;;;;;;;4.50;1.90;;;;;;;;;;5027862;28;20435;-79
2024/01/18 11:29:47;;;;;;;6.53;1.80;;;;;;;;;;5022939;28;20076;-81
2024/01/18 11:32:14;;;;;;;6.80;1.70;;;;;;;;;;5021581;28;20068;-78
2024/01/18 11:34:40;;;;;;;5.22;1.58;;;;;;;;;;5029137;28;20091;-76
2024/01/18 11:37:13;;;;;;;5.03;1.55;;;;;;;;;;5021212;28;20046;-77
2024/01/18 11:39:48;;;;;;;5.05;1.83;;;;;;;;;;5030710;28;20156;-77
2024/01/18 11:42:18;;;;;;;8.32;1.67;;;;;;;;;;5029380;28;20075;-77
2024/01/18 11:44:50;;;;;;;3.35;1.30;;;;;;;;;;5023552;28;20037;-77
2024/01/18 11:47:18;;;;;;;8.32;2.33;;;;;;;;;;5010320;28;20133;-78
2024/01/18 11:49:44;;;;;;;6.05;1.70;;;;;;;;;;5022990;28;20717;-76
2024/01/18 11:52:11;;;;;;;3.00;1.50;;;;;;;;;;5006989;28;20057;-76
2024/01/18 11:54:38;;;;;;;3.65;1.63;;;;;;;;;;5018927;28;20048;-76
2024/01/18 11:57:12;;;;;;;7.10;1.70;;;;;;;;;;5026423;28;20433;-76
2024/01/18 11:59:40;;;;;;;4.05;1.40;;;;;;;;;;5012385;28;20057;-76
2024/01/18 12:02:06;;;;;;;6.95;1.95;;;;;;;;;;5027561;28;20049;-75
2024/01/18 12:04:32;;;;;;;6.35;1.58;;;;;;;;;;4999386;28;20836;-75
2024/01/18 12:06:58;;;;;;;4.82;1.60;;;;;;;;;;5021703;28;20054;-76
2024/01/18 12:09:27;;;;;;;7.25;1.70;;;;;;;;;;5018759;28;20124;-76
2024/01/18 12:11:56;;;;;;;9.40;1.60;;;;;;;;;;5022746;28;20050;-76
2024/01/18 12:14:22;;;;;;;4.68;1.30;;;;;;;;;;4999298;28;20108;-76
2024/01/18 12:16:48;;;;;;;3.65;1.50;;;;;;;;;;5019233;28;20049;-76
2024/01/18 12:19:28;;;;;;;6.55;1.67;;;;;;;;;;5033657;28;20037;-76
2024/01/18 12:21:54;;;;;;;3.35;1.33;;;;;;;;;;5021356;28;20098;-76
2024/01/18 12:24:20;;;;;;;2.92;1.30;;;;;;;;;;5018752;28;20045;-76
2024/01/18 12:26:46;;;;;;;2.97;1.35;;;;;;;;;;5017038;28;20038;-76
2024/01/18 12:29:13;;;;;;;3.63;1.67;;;;;;;;;;5027821;28;20048;-76
2024/01/18 12:31:39;;;;;;;2.35;1.50;;;;;;;;;;5033020;28;20046;-76
2024/01/18 12:34:05;;;;;;;7.40;1.77;;;;;;;;;;5010149;28;20053;-76
2024/01/18 12:36:31;;;;;;;7.00;1.80;;;;;;;;;;5022013;28;20102;-76
2024/01/18 12:38:57;;;;;;;4.97;1.80;;;;;;;;;;5018310;28;20042;-76
2024/01/18 12:41:23;;;;;;;6.47;1.60;;;;;;;;;;5017346;28;20455;-75
2024/01/18 12:43:49;;;;;;;7.53;1.80;;;;;;;;;;5023608;28;20052;-76
2024/01/18 12:46:15;;;;;;;6.53;1.73;;;;;;;;;;4996605;28;20408;-76
2024/01/18 12:48:42;;;;;;;3.65;1.50;;;;;;;;;;5030691;28;20077;-76
2024/01/18 12:51:08;;;;;;;3.83;1.45;;;;;;;;;;5032829;28;20122;-76
2024/01/18 12:53:34;;;;;;;4.78;1.33;;;;;;;;;;5031774;28;20045;-76
2024/01/18 12:56:00;;;;;;;5.82;1.42;;;;;;;;;;5024512;28;20033;-76
2024/01/18 12:58:26;;;;;;;4.20;1.30;;;;;;;;;;5014994;28;20133;-76
2024/01/18 13:00:52;;;;;;;4.93;1.35;;;;;;;;;;5031561;28;20385;-76
2024/01/18 13:03:21;;;;;;;3.72;1.45;;;;;;;;;;5017656;28;20042;-76
2024/01/18 13:05:48;;;;;;;5.25;1.60;;;;;;;;;;5028084;28;20096;-76
2024/01/18 13:08:17;;;;;;;4.90;1.42;;;;;;;;;;5020475;28;20480;-76
2024/01/18 13:10:45;;;;;;;5.72;1.63;;;;;;;;;;5031184;28;20399;-76
2024/01/18 13:13:11;;;;;;;8.23;1.67;;;;;;;;;;5031370;28;20061;-76
2024/01/18 13:15:38;;;;;;;2.95;1.40;;;;;;;;;;5009918;28;20064;-76
2024/01/18 13:18:10;;;;;;;3.90;1.52;;;;;;;;;;5015688;28;20459;-76
2024/01/18 13:20:37;;;;;;;2.63;1.27;;;;;;;;;;5028970;28;20041;-76
2024/01/18 13:23:03;;;;;;;3.47;1.35;;;;;;;;;;5028088;28;20079;-76
2024/01/18 13:25:30;;;;;;;5.40;1.33;;;;;;;;;;5036265;28;20049;-76
2024/01/18 13:27:56;;;;;;;3.70;1.23;;;;;;;;;;5033109;28;20068;-76
2024/01/18 13:30:22;;;;;;;4.07;1.20;;;;;;;;;;5027806;28;20077;-77
2024/01/18 13:32:49;;;;;;;2.17;1.23;;;;;;;;;;5032169;28;20070;-76
2024/01/18 13:35:15;;;;;;;2.70;1.33;;;;;;;;;;5021177;28;20506;-76
2024/01/18 13:37:41;;;;;;;2.45;1.17;;;;;;;;;;5012491;28;20092;-76
2024/01/18 13:40:08;;;;;;;4.15;1.30;;;;;;;;;;5012620;28;20548;-76
2024/01/18 13:42:34;;;;;;;4.72;1.30;;;;;;;;;;5029927;28;20109;-77
2024/01/18 13:45:00;;;;;;;7.93;2.70;;;;;;;;;;5026425;28;20061;-76
2024/01/18 13:47:26;;;;;;;5.45;1.90;;;;;;;;;;5030680;28;20456;-76
2024/01/18 13:49:52;;;;;;;1.77;1.20;;;;;;;;;;5033957;28;20083;-76
2024/01/18 13:52:20;;;;;;;4.10;1.30;;;;;;;;;;5035567;28;20073;-76
2024/01/18 13:54:46;;;;;;;4.80;1.30;;;;;;;;;;5028217;28;20107;-76
2024/01/18 13:57:13;;;;;;;4.00;1.58;;;;;;;;;;5031299;28;20068;-76
2024/01/18 13:59:39;;;;;;;3.65;1.42;;;;;;;;;;5016480;28;20057;-76
2024/01/18 14:02:05;;;;;;;4.38;1.40;;;;;;;;;;5030376;28;20057;-76
2024/01/18 14:04:31;;;;;;;4.00;1.60;;;;;;;;;;5029176;28;20038;-76
2024/01/18 14:06:58;;;;;;;4.30;1.50;;;;;;;;;;5021211;28;20037;-76
2024/01/18 14:09:24;;;;;;;7.78;1.50;;;;;;;;;;5021632;28;20041;-76
2024/01/18 14:11:50;;;;;;;5.47;1.60;;;;;;;;;;5021739;28;20060;-76
2024/01/18 14:14:16;;;;;;;3.55;1.55;;;;;;;;;;5028342;28;20057;-76
2024/01/18 14:16:42;;;;;;;3.67;1.60;;;;;;;;;;5030153;28;20152;-76
2024/01/18 14:19:09;;;;;;;7.28;1.77;;;;;;;;;;5029717;28;20120;-76
2024/01/18 14:21:35;;;;;;;3.45;1.77;;;;;;;;;;5034235;28;20396;-76
2024/01/18 14:24:01;;;;;;;6.55;1.80;;;;;;;;;;5030969;28;20041;-75
2024/01/18 14:26:27;;;;;;;5.95;1.70;;;;;;;;;;5032600;28;20472;-75
2024/01/18 14:28:53;;;;;;;5.75;1.90;;;;;;;;;;5029116;28;20042;-76
2024/01/18 14:31:19;;;;;;;5.50;2.08;;;;;;;;;;5019507;28;20041;-75
2024/01/18 14:33:45;;;;;;;3.00;1.45;;;;;;;;;;5026161;28;20092;-75
2024/01/18 14:36:11;;;;;;;3.40;1.60;;;;;;;;;;5027274;28;20349;-75
2024/01/18 14:38:37;;;;;;;5.18;1.60;;;;;;;;;;5024577;28;20128;-76